sensor_id;sensor_type;location;lat;lon;timestamp;P1;durP1;ratioP1;P2;durP2;ratioP2
48627;SDS011;34424;52.234;6.500;2023-04-24T00:00:18;11.02;;;9.23;;
48627;SDS011;34424;52.234;6.500;2023-04-24T00:05:27;10.05;;;8.65;;
48627;SDS011;34424;52.234;6.500;2023-04-24T00:10:31;8.77;;;7.68;;
48627;SDS011;34424;52.234;6.500;2023-04-24T00:15:35;8.32;;;7.32;;
48627;SDS011;34424;52.234;6.500;2023-04-24T00:20:38;7.93;;;6.43;;
48627;SDS011;34424;52.234;6.500;2023-04-24T00:25:42;7.45;;;6.40;;
48627;SDS011;34424;52.234;6.500;2023-04-24T00:30:46;7.28;;;6.47;;
48627;SDS011;34424;52.234;6.500;2023-04-24T00:35:49;7.68;;;6.80;;
48627;SDS011;34424;52.234;6.500;2023-04-24T00:40:52;10.20;;;8.43;;
48627;SDS011;34424;52.234;6.500;2023-04-24T00:45:57;10.55;;;8.98;;
48627;SDS011;34424;52.234;6.500;2023-04-24T00:51:00;11.68;;;9.00;;
48627;SDS011;34424;52.234;6.500;2023-04-24T00:56:04;11.95;;;9.50;;
48627;SDS011;34424;52.234;6.500;2023-04-24T01:01:09;13.93;;;9.10;;
48627;SDS011;34424;52.234;6.500;2023-04-24T01:06:13;11.50;;;9.40;;
48627;SDS011;34424;52.234;6.500;2023-04-24T01:11:16;10.48;;;8.88;;
48627;SDS011;34424;52.234;6.500;2023-04-24T01:16:21;11.32;;;8.88;;
48627;SDS011;34424;52.234;6.500;2023-04-24T01:21:24;12.98;;;9.55;;
48627;SDS011;34424;52.234;6.500;2023-04-24T01:26:31;14.15;;;11.68;;
48627;SDS011;34424;52.234;6.500;2023-04-24T01:31:34;16.60;;;12.25;;
48627;SDS011;34424;52.234;6.500;2023-04-24T01:36:37;15.73;;;11.65;;
48627;SDS011;34424;52.234;6.500;2023-04-24T01:41:41;12.23;;;10.30;;
48627;SDS011;34424;52.234;6.500;2023-04-24T01:46:44;9.77;;;7.60;;
48627;SDS011;34424;52.234;6.500;2023-04-24T01:51:47;8.38;;;7.10;;
48627;SDS011;34424;52.234;6.500;2023-04-24T01:56:51;9.43;;;7.63;;
48627;SDS011;34424;52.234;6.500;2023-04-24T02:01:56;11.68;;;9.25;;
48627;SDS011;34424;52.234;6.500;2023-04-24T02:06:58;14.80;;;11.55;;
48627;SDS011;34424;52.234;6.500;2023-04-24T02:12:02;19.70;;;14.17;;
48627;SDS011;34424;52.234;6.500;2023-04-24T02:17:05;21.13;;;15.18;;
48627;SDS011;34424;52.234;6.500;2023-04-24T02:22:08;19.70;;;14.13;;
48627;SDS011;34424;52.234;6.500;2023-04-24T02:27:13;18.70;;;11.85;;
48627;SDS011;34424;52.234;6.500;2023-04-24T02:32:15;15.82;;;11.27;;
48627;SDS011;34424;52.234;6.500;2023-04-24T02:37:18;13.03;;;9.50;;
48627;SDS011;34424;52.234;6.500;2023-04-24T02:42:22;12.77;;;9.03;;
48627;SDS011;34424;52.234;6.500;2023-04-24T02:47:25;10.30;;;7.80;;
48627;SDS011;34424;52.234;6.500;2023-04-24T02:52:28;14.85;;;9.98;;
48627;SDS011;34424;52.234;6.500;2023-04-24T02:57:32;14.10;;;10.17;;
48627;SDS011;34424;52.234;6.500;2023-04-24T03:02:35;13.98;;;10.65;;
48627;SDS011;34424;52.234;6.500;2023-04-24T03:07:38;14.45;;;10.55;;
48627;SDS011;34424;52.234;6.500;2023-04-24T03:12:42;11.73;;;8.30;;
48627;SDS011;34424;52.234;6.500;2023-04-24T03:17:45;14.05;;;9.63;;
48627;SDS011;34424;52.234;6.500;2023-04-24T03:22:48;12.15;;;8.60;;
48627;SDS011;34424;52.234;6.500;2023-04-24T03:27:56;12.40;;;8.57;;
48627;SDS011;34424;52.234;6.500;2023-04-24T03:32:59;17.60;;;11.02;;
48627;SDS011;34424;52.234;6.500;2023-04-24T03:38:02;25.80;;;15.63;;
48627;SDS011;34424;52.234;6.500;2023-04-24T03:43:07;28.60;;;18.52;;
48627;SDS011;34424;52.234;6.500;2023-04-24T03:48:10;29.23;;;18.00;;
48627;SDS011;34424;52.234;6.500;2023-04-24T03:53:12;29.70;;;20.07;;
48627;SDS011;34424;52.234;6.500;2023-04-24T03:58:17;29.73;;;19.07;;
48627;SDS011;34424;52.234;6.500;2023-04-24T04:03:20;34.60;;;20.20;;
48627;SDS011;34424;52.234;6.500;2023-04-24T04:08:24;36.65;;;22.58;;
48627;SDS011;34424;52.234;6.500;2023-04-24T04:13:28;29.80;;;19.63;;
48627;SDS011;34424;52.234;6.500;2023-04-24T04:18:30;27.88;;;18.45;;
48627;SDS011;34424;52.234;6.500;2023-04-24T04:34:02;36.25;;;23.63;;
48627;SDS011;34424;52.234;6.500;2023-04-24T04:39:05;34.90;;;24.23;;
48627;SDS011;34424;52.234;6.500;2023-04-24T04:44:09;40.90;;;26.63;;
48627;SDS011;34424;52.234;6.500;2023-04-24T04:49:12;47.10;;;29.20;;
48627;SDS011;34424;52.234;6.500;2023-04-24T04:54:17;46.78;;;29.15;;
48627;SDS011;34424;52.234;6.500;2023-04-24T04:59:21;51.00;;;31.50;;
48627;SDS011;34424;52.234;6.500;2023-04-24T05:04:24;47.72;;;31.35;;
48627;SDS011;34424;52.234;6.500;2023-04-24T05:09:27;52.53;;;33.55;;
48627;SDS011;34424;52.234;6.500;2023-04-24T05:14:32;48.07;;;31.37;;
48627;SDS011;34424;52.234;6.500;2023-04-24T05:19:34;46.30;;;30.40;;
48627;SDS011;34424;52.234;6.500;2023-04-24T05:24:39;46.67;;;28.48;;
48627;SDS011;34424;52.234;6.500;2023-04-24T05:29:43;44.33;;;28.27;;
48627;SDS011;34424;52.234;6.500;2023-04-24T05:34:46;41.10;;;26.88;;
48627;SDS011;34424;52.234;6.500;2023-04-24T05:39:48;43.80;;;29.67;;
48627;SDS011;34424;52.234;6.500;2023-04-24T05:44:52;42.23;;;27.03;;
48627;SDS011;34424;52.234;6.500;2023-04-24T05:49:58;38.88;;;26.23;;
48627;SDS011;34424;52.234;6.500;2023-04-24T05:55:00;38.50;;;25.70;;
48627;SDS011;34424;52.234;6.500;2023-04-24T06:00:05;40.78;;;26.45;;
48627;SDS011;34424;52.234;6.500;2023-04-24T06:05:09;39.40;;;25.88;;
48627;SDS011;34424;52.234;6.500;2023-04-24T06:10:12;38.17;;;25.33;;
48627;SDS011;34424;52.234;6.500;2023-04-24T06:15:16;37.83;;;26.13;;
48627;SDS011;34424;52.234;6.500;2023-04-24T06:20:19;38.30;;;25.35;;
48627;SDS011;34424;52.234;6.500;2023-04-24T06:25:22;39.27;;;26.10;;
48627;SDS011;34424;52.234;6.500;2023-04-24T06:30:27;39.47;;;26.23;;
48627;SDS011;34424;52.234;6.500;2023-04-24T06:35:30;37.22;;;26.15;;
48627;SDS011;34424;52.234;6.500;2023-04-24T06:40:33;41.60;;;25.97;;
48627;SDS011;34424;52.234;6.500;2023-04-24T06:45:38;44.78;;;26.88;;
48627;SDS011;34424;52.234;6.500;2023-04-24T06:50:41;41.55;;;26.83;;
48627;SDS011;34424;52.234;6.500;2023-04-24T06:55:45;38.87;;;25.43;;
48627;SDS011;34424;52.234;6.500;2023-04-24T07:00:48;37.13;;;23.65;;
48627;SDS011;34424;52.234;6.500;2023-04-24T07:05:51;32.05;;;21.95;;
48627;SDS011;34424;52.234;6.500;2023-04-24T07:10:54;32.25;;;20.42;;
48627;SDS011;34424;52.234;6.500;2023-04-24T07:15:58;24.47;;;17.10;;
48627;SDS011;34424;52.234;6.500;2023-04-24T07:21:01;24.95;;;17.27;;
48627;SDS011;34424;52.234;6.500;2023-04-24T07:26:04;23.73;;;15.67;;
48627;SDS011;34424;52.234;6.500;2023-04-24T07:31:08;18.97;;;13.67;;
48627;SDS011;34424;52.234;6.500;2023-04-24T07:36:11;18.40;;;10.75;;
48627;SDS011;34424;52.234;6.500;2023-04-24T07:41:17;15.50;;;9.98;;
48627;SDS011;34424;52.234;6.500;2023-04-24T07:46:21;16.03;;;10.00;;
48627;SDS011;34424;52.234;6.500;2023-04-24T07:51:24;14.68;;;8.48;;
48627;SDS011;34424;52.234;6.500;2023-04-24T07:56:28;12.45;;;8.38;;
48627;SDS011;34424;52.234;6.500;2023-04-24T08:01:33;8.63;;;6.22;;
48627;SDS011;34424;52.234;6.500;2023-04-24T08:06:36;9.27;;;6.38;;
48627;SDS011;34424;52.234;6.500;2023-04-24T08:11:39;9.37;;;5.77;;
48627;SDS011;34424;52.234;6.500;2023-04-24T08:16:43;8.97;;;5.80;;
48627;SDS011;34424;52.234;6.500;2023-04-24T08:21:45;7.95;;;5.45;;
48627;SDS011;34424;52.234;6.500;2023-04-24T08:26:49;6.53;;;4.90;;
48627;SDS011;34424;52.234;6.500;2023-04-24T08:31:54;6.45;;;4.10;;
48627;SDS011;34424;52.234;6.500;2023-04-24T08:36:57;7.50;;;4.50;;
48627;SDS011;34424;52.234;6.500;2023-04-24T08:41:59;4.03;;;3.63;;
48627;SDS011;34424;52.234;6.500;2023-04-24T08:47:09;6.68;;;4.93;;
48627;SDS011;34424;52.234;6.500;2023-04-24T08:52:16;9.15;;;5.93;;
48627;SDS011;34424;52.234;6.500;2023-04-24T08:57:20;10.70;;;8.05;;
48627;SDS011;34424;52.234;6.500;2023-04-24T09:02:25;14.82;;;10.20;;
48627;SDS011;34424;52.234;6.500;2023-04-24T09:07:28;15.65;;;11.27;;
48627;SDS011;34424;52.234;6.500;2023-04-24T09:12:34;18.50;;;12.70;;
48627;SDS011;34424;52.234;6.500;2023-04-24T09:17:40;23.33;;;14.60;;
48627;SDS011;34424;52.234;6.500;2023-04-24T09:22:42;23.85;;;16.60;;
48627;SDS011;34424;52.234;6.500;2023-04-24T09:27:47;25.50;;;16.58;;
48627;SDS011;34424;52.234;6.500;2023-04-24T09:32:51;17.70;;;13.80;;
48627;SDS011;34424;52.234;6.500;2023-04-24T09:38:12;18.25;;;13.73;;
48627;SDS011;34424;52.234;6.500;2023-04-24T09:43:14;22.43;;;13.00;;
48627;SDS011;34424;52.234;6.500;2023-04-24T09:48:18;17.70;;;12.83;;
48627;SDS011;34424;52.234;6.500;2023-04-24T09:53:23;16.08;;;11.25;;
48627;SDS011;34424;52.234;6.500;2023-04-24T09:58:27;18.17;;;10.45;;
48627;SDS011;34424;52.234;6.500;2023-04-24T10:03:32;15.05;;;8.73;;
48627;SDS011;34424;52.234;6.500;2023-04-24T10:08:36;14.30;;;8.93;;
48627;SDS011;34424;52.234;6.500;2023-04-24T10:18:43;14.05;;;7.90;;
48627;SDS011;34424;52.234;6.500;2023-04-24T10:23:47;14.52;;;8.18;;
48627;SDS011;34424;52.234;6.500;2023-04-24T10:28:51;11.18;;;7.32;;
48627;SDS011;34424;52.234;6.500;2023-04-24T10:33:56;18.15;;;7.85;;
48627;SDS011;34424;52.234;6.500;2023-04-24T10:39:01;12.05;;;6.35;;
48627;SDS011;34424;52.234;6.500;2023-04-24T10:44:06;7.68;;;5.07;;
48627;SDS011;34424;52.234;6.500;2023-04-24T10:49:11;11.27;;;5.20;;
48627;SDS011;34424;52.234;6.500;2023-04-24T10:54:23;17.27;;;5.20;;
48627;SDS011;34424;52.234;6.500;2023-04-24T10:59:27;13.13;;;5.72;;
48627;SDS011;34424;52.234;6.500;2023-04-24T11:04:39;13.40;;;6.82;;
48627;SDS011;34424;52.234;6.500;2023-04-24T11:09:44;15.68;;;5.22;;
48627;SDS011;34424;52.234;6.500;2023-04-24T11:15:02;7.50;;;5.00;;
48627;SDS011;34424;52.234;6.500;2023-04-24T11:20:07;7.47;;;3.28;;
48627;SDS011;34424;52.234;6.500;2023-04-24T11:25:29;12.18;;;3.83;;
48627;SDS011;34424;52.234;6.500;2023-04-24T11:30:33;5.70;;;3.40;;
48627;SDS011;34424;52.234;6.500;2023-04-24T11:35:40;6.45;;;3.20;;
48627;SDS011;34424;52.234;6.500;2023-04-24T11:40:43;4.60;;;2.83;;
48627;SDS011;34424;52.234;6.500;2023-04-24T11:45:48;5.32;;;3.17;;
48627;SDS011;34424;52.234;6.500;2023-04-24T11:50:52;9.25;;;3.13;;
48627;SDS011;34424;52.234;6.500;2023-04-24T11:55:55;7.30;;;3.10;;
48627;SDS011;34424;52.234;6.500;2023-04-24T12:00:57;8.53;;;3.67;;
48627;SDS011;34424;52.234;6.500;2023-04-24T12:06:08;11.95;;;3.80;;
48627;SDS011;34424;52.234;6.500;2023-04-24T12:11:14;9.40;;;3.38;;
48627;SDS011;34424;52.234;6.500;2023-04-24T12:16:18;10.57;;;3.97;;
48627;SDS011;34424;52.234;6.500;2023-04-24T12:21:23;10.13;;;4.57;;
48627;SDS011;34424;52.234;6.500;2023-04-24T12:26:28;6.10;;;3.00;;
48627;SDS011;34424;52.234;6.500;2023-04-24T12:31:31;7.13;;;3.53;;
48627;SDS011;34424;52.234;6.500;2023-04-24T12:36:36;3.47;;;2.10;;
48627;SDS011;34424;52.234;6.500;2023-04-24T12:41:39;3.53;;;2.28;;
48627;SDS011;34424;52.234;6.500;2023-04-24T12:46:52;6.18;;;1.92;;
48627;SDS011;34424;52.234;6.500;2023-04-24T12:51:56;8.97;;;2.20;;
48627;SDS011;34424;52.234;6.500;2023-04-24T12:56:59;6.80;;;2.63;;
48627;SDS011;34424;52.234;6.500;2023-04-24T13:02:01;1.67;;;1.53;;
48627;SDS011;34424;52.234;6.500;2023-04-24T13:07:06;5.13;;;1.55;;
48627;SDS011;34424;52.234;6.500;2023-04-24T13:12:09;2.03;;;1.33;;
48627;SDS011;34424;52.234;6.500;2023-04-24T13:17:12;2.38;;;1.20;;
48627;SDS011;34424;52.234;6.500;2023-04-24T13:22:17;1.40;;;1.30;;
48627;SDS011;34424;52.234;6.500;2023-04-24T13:27:20;1.20;;;1.10;;
48627;SDS011;34424;52.234;6.500;2023-04-24T13:32:23;1.50;;;1.40;;
48627;SDS011;34424;52.234;6.500;2023-04-24T13:37:27;1.92;;;1.15;;
48627;SDS011;34424;52.234;6.500;2023-04-24T13:42:30;2.80;;;0.80;;
48627;SDS011;34424;52.234;6.500;2023-04-24T13:47:33;2.10;;;1.87;;
48627;SDS011;34424;52.234;6.500;2023-04-24T13:57:41;1.90;;;1.45;;
48627;SDS011;34424;52.234;6.500;2023-04-24T14:02:44;3.80;;;1.27;;
48627;SDS011;34424;52.234;6.500;2023-04-24T14:07:51;3.60;;;1.88;;
48627;SDS011;34424;52.234;6.500;2023-04-24T14:12:54;4.28;;;2.05;;
48627;SDS011;34424;52.234;6.500;2023-04-24T14:17:57;3.37;;;1.60;;
48627;SDS011;34424;52.234;6.500;2023-04-24T14:23:01;2.07;;;1.37;;
48627;SDS011;34424;52.234;6.500;2023-04-24T14:28:03;9.70;;;1.90;;
48627;SDS011;34424;52.234;6.500;2023-04-24T14:33:08;3.80;;;3.08;;
48627;SDS011;34424;52.234;6.500;2023-04-24T14:38:12;7.22;;;3.10;;
48627;SDS011;34424;52.234;6.500;2023-04-24T14:43:15;7.03;;;2.75;;
48627;SDS011;34424;52.234;6.500;2023-04-24T14:48:17;5.67;;;2.93;;
48627;SDS011;34424;52.234;6.500;2023-04-24T14:53:22;9.43;;;3.17;;
48627;SDS011;34424;52.234;6.500;2023-04-24T14:58:24;6.20;;;3.22;;
48627;SDS011;34424;52.234;6.500;2023-04-24T15:03:27;6.03;;;3.07;;
48627;SDS011;34424;52.234;6.500;2023-04-24T15:13:34;5.87;;;2.70;;
48627;SDS011;34424;52.234;6.500;2023-04-24T15:18:37;11.40;;;2.93;;
48627;SDS011;34424;52.234;6.500;2023-04-24T15:23:41;9.43;;;3.03;;
48627;SDS011;34424;52.234;6.500;2023-04-24T15:28:44;4.53;;;2.40;;
48627;SDS011;34424;52.234;6.500;2023-04-24T15:33:47;9.95;;;2.60;;
48627;SDS011;34424;52.234;6.500;2023-04-24T15:38:53;6.85;;;2.35;;
48627;SDS011;34424;52.234;6.500;2023-04-24T15:43:56;8.13;;;1.98;;
48627;SDS011;34424;52.234;6.500;2023-04-24T15:48:59;5.40;;;2.20;;
48627;SDS011;34424;52.234;6.500;2023-04-24T15:54:03;7.70;;;2.15;;
48627;SDS011;34424;52.234;6.500;2023-04-24T15:59:07;5.85;;;2.10;;
48627;SDS011;34424;52.234;6.500;2023-04-24T16:04:11;6.63;;;2.53;;
48627;SDS011;34424;52.234;6.500;2023-04-24T16:09:15;3.75;;;2.15;;
48627;SDS011;34424;52.234;6.500;2023-04-24T16:14:18;6.45;;;2.35;;
48627;SDS011;34424;52.234;6.500;2023-04-24T16:19:20;4.63;;;2.03;;
48627;SDS011;34424;52.234;6.500;2023-04-24T16:24:27;4.90;;;2.38;;
48627;SDS011;34424;52.234;6.500;2023-04-24T16:29:30;5.65;;;2.40;;
48627;SDS011;34424;52.234;6.500;2023-04-24T16:34:33;3.85;;;2.75;;
48627;SDS011;34424;52.234;6.500;2023-04-24T16:39:37;6.03;;;2.57;;
48627;SDS011;34424;52.234;6.500;2023-04-24T16:44:44;9.50;;;3.28;;
48627;SDS011;34424;52.234;6.500;2023-04-24T16:49:48;8.73;;;2.75;;
48627;SDS011;34424;52.234;6.500;2023-04-24T16:54:52;11.90;;;3.25;;
48627;SDS011;34424;52.234;6.500;2023-04-24T16:59:55;10.13;;;4.22;;
48627;SDS011;34424;52.234;6.500;2023-04-24T17:04:58;7.13;;;3.33;;
48627;SDS011;34424;52.234;6.500;2023-04-24T17:10:02;9.63;;;3.47;;
48627;SDS011;34424;52.234;6.500;2023-04-24T17:15:06;13.65;;;6.65;;
48627;SDS011;34424;52.234;6.500;2023-04-24T17:20:09;8.02;;;4.25;;
48627;SDS011;34424;52.234;6.500;2023-04-24T17:25:24;11.15;;;3.80;;
48627;SDS011;34424;52.234;6.500;2023-04-24T17:30:27;9.73;;;3.58;;
48627;SDS011;34424;52.234;6.500;2023-04-24T17:35:30;16.27;;;6.07;;
48627;SDS011;34424;52.234;6.500;2023-04-24T17:40:34;8.93;;;4.88;;
48627;SDS011;34424;52.234;6.500;2023-04-24T17:45:39;11.05;;;4.45;;
48627;SDS011;34424;52.234;6.500;2023-04-24T17:50:42;10.55;;;3.63;;
48627;SDS011;34424;52.234;6.500;2023-04-24T17:55:46;9.83;;;3.53;;
48627;SDS011;34424;52.234;6.500;2023-04-24T18:00:49;7.72;;;4.32;;
48627;SDS011;34424;52.234;6.500;2023-04-24T18:05:51;14.05;;;4.35;;
48627;SDS011;34424;52.234;6.500;2023-04-24T18:10:56;14.65;;;4.85;;
48627;SDS011;34424;52.234;6.500;2023-04-24T18:15:59;9.55;;;3.97;;
48627;SDS011;34424;52.234;6.500;2023-04-24T18:21:03;5.93;;;3.95;;
48627;SDS011;34424;52.234;6.500;2023-04-24T18:26:07;8.82;;;4.00;;
48627;SDS011;34424;52.234;6.500;2023-04-24T18:31:10;6.95;;;4.07;;
48627;SDS011;34424;52.234;6.500;2023-04-24T18:36:13;8.77;;;3.53;;
48627;SDS011;34424;52.234;6.500;2023-04-24T18:41:17;11.33;;;4.23;;
48627;SDS011;34424;52.234;6.500;2023-04-24T18:46:20;11.05;;;4.88;;
48627;SDS011;34424;52.234;6.500;2023-04-24T18:51:22;11.60;;;4.47;;
48627;SDS011;34424;52.234;6.500;2023-04-24T18:56:26;8.33;;;4.37;;
48627;SDS011;34424;52.234;6.500;2023-04-24T19:01:29;6.88;;;4.47;;
48627;SDS011;34424;52.234;6.500;2023-04-24T19:06:33;11.45;;;4.35;;
48627;SDS011;34424;52.234;6.500;2023-04-24T19:11:37;11.93;;;5.37;;
48627;SDS011;34424;52.234;6.500;2023-04-24T19:16:41;12.20;;;5.68;;
48627;SDS011;34424;52.234;6.500;2023-04-24T19:21:44;9.20;;;5.10;;
48627;SDS011;34424;52.234;6.500;2023-04-24T19:26:49;10.60;;;4.55;;
48627;SDS011;34424;52.234;6.500;2023-04-24T19:31:51;10.40;;;4.55;;
48627;SDS011;34424;52.234;6.500;2023-04-24T19:36:54;12.38;;;5.20;;
48627;SDS011;34424;52.234;6.500;2023-04-24T19:41:59;9.80;;;5.13;;
48627;SDS011;34424;52.234;6.500;2023-04-24T19:47:05;11.95;;;5.65;;
48627;SDS011;34424;52.234;6.500;2023-04-24T19:52:08;9.48;;;5.05;;
48627;SDS011;34424;52.234;6.500;2023-04-24T19:57:12;13.77;;;6.23;;
48627;SDS011;34424;52.234;6.500;2023-04-24T20:02:15;15.13;;;5.97;;
48627;SDS011;34424;52.234;6.500;2023-04-24T20:07:18;13.32;;;5.65;;
48627;SDS011;34424;52.234;6.500;2023-04-24T20:12:22;12.10;;;6.10;;
48627;SDS011;34424;52.234;6.500;2023-04-24T20:17:24;15.98;;;6.22;;
48627;SDS011;34424;52.234;6.500;2023-04-24T20:22:27;11.20;;;5.77;;
48627;SDS011;34424;52.234;6.500;2023-04-24T20:27:33;16.90;;;6.55;;
48627;SDS011;34424;52.234;6.500;2023-04-24T20:32:36;15.57;;;6.03;;
48627;SDS011;34424;52.234;6.500;2023-04-24T20:37:39;16.42;;;7.15;;
48627;SDS011;34424;52.234;6.500;2023-04-24T20:42:43;14.63;;;5.47;;
48627;SDS011;34424;52.234;6.500;2023-04-24T20:47:46;10.23;;;5.40;;
48627;SDS011;34424;52.234;6.500;2023-04-24T20:52:50;12.80;;;5.82;;
48627;SDS011;34424;52.234;6.500;2023-04-24T20:57:54;17.37;;;6.90;;
48627;SDS011;34424;52.234;6.500;2023-04-24T21:02:57;14.70;;;6.32;;
48627;SDS011;34424;52.234;6.500;2023-04-24T21:08:02;18.47;;;6.13;;
48627;SDS011;34424;52.234;6.500;2023-04-24T21:13:06;14.43;;;6.45;;
48627;SDS011;34424;52.234;6.500;2023-04-24T21:18:09;17.30;;;7.22;;
48627;SDS011;34424;52.234;6.500;2023-04-24T21:23:11;16.17;;;8.33;;
48627;SDS011;34424;52.234;6.500;2023-04-24T21:28:15;11.50;;;7.10;;
48627;SDS011;34424;52.234;6.500;2023-04-24T21:33:18;14.35;;;7.13;;
48627;SDS011;34424;52.234;6.500;2023-04-24T21:38:22;14.50;;;7.50;;
48627;SDS011;34424;52.234;6.500;2023-04-24T21:43:26;18.13;;;7.22;;
48627;SDS011;34424;52.234;6.500;2023-04-24T21:48:45;24.25;;;7.93;;
48627;SDS011;34424;52.234;6.500;2023-04-24T21:53:47;15.90;;;6.80;;
48627;SDS011;34424;52.234;6.500;2023-04-24T21:58:52;14.75;;;6.60;;
48627;SDS011;34424;52.234;6.500;2023-04-24T22:03:54;12.30;;;6.75;;
48627;SDS011;34424;52.234;6.500;2023-04-24T22:08:57;15.50;;;6.85;;
48627;SDS011;34424;52.234;6.500;2023-04-24T22:14:01;17.77;;;6.35;;
48627;SDS011;34424;52.234;6.500;2023-04-24T22:19:04;7.95;;;4.90;;
48627;SDS011;34424;52.234;6.500;2023-04-24T22:24:06;13.17;;;5.47;;
48627;SDS011;34424;52.234;6.500;2023-04-24T22:29:11;9.30;;;5.70;;
48627;SDS011;34424;52.234;6.500;2023-04-24T22:34:14;10.70;;;6.03;;
48627;SDS011;34424;52.234;6.500;2023-04-24T22:39:17;11.45;;;6.13;;
48627;SDS011;34424;52.234;6.500;2023-04-24T22:44:21;7.63;;;5.60;;
48627;SDS011;34424;52.234;6.500;2023-04-24T22:49:23;15.45;;;6.13;;
48627;SDS011;34424;52.234;6.500;2023-04-24T22:54:27;10.88;;;5.43;;
48627;SDS011;34424;52.234;6.500;2023-04-24T22:59:31;9.93;;;5.17;;
48627;SDS011;34424;52.234;6.500;2023-04-24T23:04:35;9.00;;;5.03;;
48627;SDS011;34424;52.234;6.500;2023-04-24T23:14:41;17.70;;;7.63;;
48627;SDS011;34424;52.234;6.500;2023-04-24T23:19:44;15.52;;;7.47;;
48627;SDS011;34424;52.234;6.500;2023-04-24T23:24:47;25.57;;;9.33;;
48627;SDS011;34424;52.234;6.500;2023-04-24T23:29:51;17.77;;;7.95;;
48627;SDS011;34424;52.234;6.500;2023-04-24T23:34:53;22.15;;;9.05;;
48627;SDS011;34424;52.234;6.500;2023-04-24T23:39:56;29.35;;;10.25;;
48627;SDS011;34424;52.234;6.500;2023-04-24T23:45:00;20.27;;;8.87;;
48627;SDS011;34424;52.234;6.500;2023-04-24T23:50:03;23.42;;;9.63;;
48627;SDS011;34424;52.234;6.500;2023-04-24T23:55:07;37.78;;;10.95;;
